AirNav   Pilot Hours Calculator
 
 1069 users online  

04NV Kingston Ranch Airport
Sandy Valley, Nevada, USA

GOING TO SANDY VALLEY?


FAA INFORMATION EFFECTIVE 01 DECEMBER 2022

Location

FAA Identifier: 04NV
Lat/Long: 35-45-19.9130N 115-39-53.0210W
35-45.331883N 115-39.883683W
35.7555314,-115.6647281
(estimated)
Elevation: 2620 ft. / 799 m (estimated)
Variation: 14E (1985)
From city: 5 miles SW of SANDY VALLEY, NV
Time zone: UTC -8 (UTC -7 during Daylight Saving Time)
Zip code: 89019

Airport Operations

Airport use: Private use. Permission required prior to landing
Activation date: 02/1991
Control tower: no
ARTCC: LOS ANGELES CENTER
FSS: RIVERSIDE FLIGHT SERVICE STATION
Attendance: UNATNDD
Wind indicator: lighted
Segmented circle: no
Lights: ACTVT LIRL RY 02/20 FREQ 123.0.

Nearby radio navigation aids

VOR radial/distance  VOR name  Freq  Var
LASr217/31.3LAS VEGAS VORTAC116.9015E

Airport Services

Runway Information

Runway 2/20

Dimensions: 3240 x 45 ft. / 988 x 14 m
Surface: asphalt
Runway edge lights: low intensity
RUNWAY 2  RUNWAY 20
Traffic pattern: leftleft

Airport Ownership and Management from official FAA records

Ownership: Privately-owned
Owner: KINGSTON RANCH LLC
10001 PARK RUN DR.
LAS VEGAS, NV 89145
Phone 702-942-2127
Manager: ALBERT G. MARQUIS
10001 PARK RUN DR.
LAS VEGAS, NV 89145
Phone 702-942-2127

Airport Operational Statistics

Aircraft based on the field: 2
Single engine airplanes: 2
    

Additional Remarks

DUE TO PROXIMITY TO SKY RANCH AIRPORT, PILOTS ARE ADVISED TO MONITOR FREQ 123.0.
FOR CD CTC LOS ANGELES ARTCC AT 661-575-2079.

Instrument Procedures

There are no published instrument procedures at 04NV.

Some nearby airports with instrument procedures:

KHND - Henderson Executive Airport (29 nm NE)
KLAS - Harry Reid International Airport (32 nm NE)
KVGT - North Las Vegas Airport (36 nm NE)
KBVU - Boulder City Municipal Airport (41 nm E)
KLSV - Nellis Air Force Base (42 nm NE)
 
Loc | Ops | Rwys | IFR | FBO | Links
Com | Nav | Svcs | Stats | Notes
Area around 04NV (Kingston Ranch Airport)
 
Road maps at: MapQuest Bing Google
 
Aerial photo
No photo
 
Sectional chart

 
Airport distance calculator
Flying to Kingston Ranch Airport? Find the distance to fly.

From to 04NV

Sunrise and sunset
Times for 04-Dec-2022
 Local
(UTC-8)
 Zulu
(UTC)
Morning civil twilight06:1014:10
Sunrise06:3814:38
Sunset16:2800:28
Evening civil twilight16:5600:56

Current date and time
Zulu (UTC)  05-Dec-2022 03:59:16
Local (UTC-8)  04-Dec-2022 19:59:16
 
METAR
KHND 
29nm NE 
050256Z 22012KT 10SM CLR 16/05 A2998 RMK AO2 SLP166 T01560050 53001
KLAS 
32nm NE 
050256Z 22010KT 10SM FEW080 17/05 A2994 RMK AO2 SLP132 T01670050 58003
KVGT 
35nm NE 
050353Z AUTO 10SM CLR 16/04 A2995 RMK AO2 SLP153 T01610044
KBVU 
41nm E 
050355Z AUTO 19009KT 10SM CLR 15/05 A2998 RMK AO2
KLSV 
42nm NE 
050255Z AUTO 03008KT 10SM CLR 15/07 A2992 RMK AO2 SLP128 T01470070 52004 $
KINS 
50nm N 
050255Z AUTO 10003KT 10SM CLR 10/03 A2995 RMK AO2 SLP128 T01030029 50005 $
TAF
KHND 
29nm NE 
041722Z 0418/0518 21006KT P6SM FEW100 BKN200 FM042000 21014G20KT P6SM SCT120 SCT250 FM050100 18012KT P6SM FEW120 BKN250
KLAS 
32nm NE 
042056Z 0421/0524 08006KT P6SM FEW100 FEW200 FM042200 21012G18KT P6SM FEW100 SCT200 FM050100 19012KT P6SM FEW120 BKN250
KVGT 
35nm NE 
042156Z 0422/0518 14007KT P6SM FEW100 FEW200 FM050000 20012KT P6SM FEW100 SCT200 FM051400 33006KT P6SM SCT120 BKN250
NOTAMs
Click for the latest NOTAMs
NOTAMs are issued by the DoD/FAA and will open in a separate window not controlled by AirNav.

 

 
 

Would you like to see your business listed on this page?

 If your business provides an interesting product or service to pilots, flight crews, aircraft, or users of the Kingston Ranch Airport, you should consider listing it here.  To start the listing process, click on the button below
 
Add a business
 

Other Pages about Kingston Ranch Airport

Update a link
 
Copyright © AirNav, LLC. All rights reserved. Privacy Policy  Contact